Pecs/Pogany, Hungary
Current Conditions -  °F | °C
As of 1:45 AM on Monday 22 Dec 2014 (Local Time) from LHPP Reporting Station
Clear Clear  
Wind Chill: 32°   Ceiling: Unl
Heat Index: 36°   Visibility: 6mi
Dew Point: 27°   Wind: 5mph
Humidity: 70%   Direction: 190°S
Pressure: 30.39"   Gusts: NA
Location:  46.1°N, 18.23°E
Report Text: LHPP 212345Z 19004KT CAVOK 02/M03 Q1029 NOSIG
Loading
Personal Weather Stations






























Interactive Weather Map New forecast layout! Learn more

10-Day Weather Forecast

Advertisements
Track Severe Weather on mobile